< < Back
Terminal Aerodrome Forecast


Current Version              Previous Versions:   1  2  3  4  5  6  7  8  9  

Terminal Aerodrome Forecast

497
FTUS44 KBMX 171100
TAFBHM
TAF
KBHM 171139Z 1712/1812 36004KT P6SM OVC005
     FM171230 36004KT 5SM BR SKC
     FM171400 36005KT P6SM SKC
     FM171600 33008KT P6SM SCT045
     FM180000 00000KT P6SM SKC=



Latest METAR

470
SAUS70 KWBC 171100 RRR
MTRBHM
METAR KBHM 171053Z 01004KT 7SM OVC004 20/19 A3001 RMK AO2 SLP154
T02000189


USA.gov is the U.S. government's official web portal to all federal, state and local government web resources and services.